Abeytas, New Mexico
Current Conditions -  °F | °C
As of 10:35 AM on Thursday 30 Oct 2014 (Local Time) from KE80 Reporting Station
Clear Clear  
Wind Chill: 58°   Ceiling: Unl
Heat Index: 58°   Visibility: 10mi
Dew Point: 20°   Wind: 3mph
Humidity: 23%   Direction: 360°N
Pressure: 30.35"   Gusts: NA
Location:  34.4828°N, 106.804°W
Report Text: KE80 301635Z AUTO 36003KT 10SM CLR 15/M07 A3035 RMK AO2 T01451068
Loading
Personal Weather Stations






























Interactive Weather Map
Tropical Storm Tracking
New forecast layout! Learn more

10-Day Weather Forecast

Advertisements
Track Severe Weather on mobile